Time;durP1;ratioP1;P1;durP2;ratioP2;P2;SDS_P1;SDS_P2;PMS_P1;PMS_P2;Temp;Humidity;BMP_temperature;BMP_pressure;BME280_temperature;BME280_humidity;BME280_pressure;Samples;Min_cycle;Max_cycle;Signal;HPM_P1;HPM_P2
2023/10/23 00:01:41;;;;;;;11.63;4.57;;;;;;;;;;5069275;28;20163;-60
2023/10/23 00:04:07;;;;;;;7.65;4.45;;;;;;;;;;5074578;28;20040;-60
2023/10/23 00:06:34;;;;;;;9.05;4.57;;;;;;;;;;5072501;28;20039;-60
2023/10/23 00:09:00;;;;;;;9.30;4.45;;;;;;;;;;5072728;28;20170;-60
2023/10/23 00:11:30;;;;;;;10.25;4.80;;;;;;;;;;5085489;28;20047;-60
2023/10/23 00:13:57;;;;;;;9.15;5.32;;;;;;;;;;5072492;28;20043;-60
2023/10/23 00:16:23;;;;;;;9.27;5.38;;;;;;;;;;5073412;28;20721;-60
2023/10/23 00:18:49;;;;;;;9.13;5.97;;;;;;;;;;5072296;28;20114;-60
2023/10/23 00:21:16;;;;;;;9.43;5.03;;;;;;;;;;5071111;28;20036;-60
2023/10/23 00:23:42;;;;;;;14.50;4.50;;;;;;;;;;5073520;28;20493;-60
2023/10/23 00:26:08;;;;;;;9.32;3.90;;;;;;;;;;5074478;28;20644;-60
2023/10/23 00:28:34;;;;;;;6.10;4.18;;;;;;;;;;5073828;28;20399;-60
2023/10/23 00:31:01;;;;;;;7.47;4.22;;;;;;;;;;5070546;28;20052;-60
2023/10/23 00:33:27;;;;;;;7.93;4.47;;;;;;;;;;5070533;28;20545;-60
2023/10/23 00:35:54;;;;;;;8.25;5.28;;;;;;;;;;5073443;28;20072;-60
2023/10/23 00:38:20;;;;;;;9.68;5.28;;;;;;;;;;5075553;28;20049;-60
2023/10/23 00:40:46;;;;;;;7.68;4.55;;;;;;;;;;5069083;28;20136;-60
2023/10/23 00:43:18;;;;;;;8.45;4.90;;;;;;;;;;5067855;28;20492;-60
2023/10/23 00:45:55;;;;;;;9.45;5.50;;;;;;;;;;5073453;28;20048;-60
2023/10/23 00:48:22;;;;;;;8.57;5.90;;;;;;;;;;5070644;28;20721;-60
2023/10/23 00:50:56;;;;;;;8.82;6.13;;;;;;;;;;5072125;28;20083;-60
2023/10/23 00:53:25;;;;;;;35.45;6.75;;;;;;;;;;5073036;28;20052;-60
2023/10/23 00:55:52;;;;;;;15.77;5.93;;;;;;;;;;5072717;28;20083;-60
2023/10/23 00:58:19;;;;;;;85.07;7.53;;;;;;;;;;5071011;28;20058;-60
2023/10/23 01:00:45;;;;;;;91.22;8.05;;;;;;;;;;5071026;28;20187;-60
2023/10/23 01:03:11;;;;;;;86.75;7.63;;;;;;;;;;5070112;28;20036;-60
2023/10/23 01:05:38;;;;;;;161.70;9.68;;;;;;;;;;5073387;28;20075;-60
2023/10/23 01:08:04;;;;;;;172.77;8.93;;;;;;;;;;5067845;28;20048;-60
2023/10/23 01:10:30;;;;;;;144.70;8.82;;;;;;;;;;5074317;28;20040;-60
2023/10/23 01:12:57;;;;;;;80.32;7.38;;;;;;;;;;5070754;28;20501;-60
2023/10/23 01:15:23;;;;;;;65.43;7.78;;;;;;;;;;5070493;28;20083;-60
2023/10/23 01:17:50;;;;;;;60.22;7.88;;;;;;;;;;5072527;28;20048;-60
2023/10/23 01:20:17;;;;;;;32.70;6.88;;;;;;;;;;5068930;28;20413;-60
2023/10/23 01:22:44;;;;;;;51.05;8.50;;;;;;;;;;5071787;28;20201;-60
2023/10/23 01:25:14;;;;;;;63.20;6.97;;;;;;;;;;5069658;28;20051;-60
2023/10/23 01:27:40;;;;;;;74.45;7.55;;;;;;;;;;5072251;28;20130;-60
2023/10/23 01:30:08;;;;;;;27.08;7.25;;;;;;;;;;5076265;28;20072;-60
2023/10/23 01:32:34;;;;;;;30.63;6.32;;;;;;;;;;5067344;28;20067;-60
2023/10/23 01:35:01;;;;;;;27.67;6.85;;;;;;;;;;5078333;28;20195;-60
2023/10/23 01:37:27;;;;;;;50.30;8.00;;;;;;;;;;5073213;28;20100;-60
2023/10/23 01:39:53;;;;;;;16.52;7.53;;;;;;;;;;5071891;28;20392;-60
2023/10/23 01:42:19;;;;;;;24.23;8.13;;;;;;;;;;5068229;28;20048;-60
2023/10/23 01:44:45;;;;;;;49.15;8.98;;;;;;;;;;5070008;28;20039;-60
2023/10/23 01:47:12;;;;;;;30.65;7.68;;;;;;;;;;5072290;28;20112;-60
2023/10/23 01:49:38;;;;;;;14.70;7.93;;;;;;;;;;5071961;28;20039;-60
2023/10/23 01:52:04;;;;;;;11.90;7.40;;;;;;;;;;5081053;28;20131;-60
2023/10/23 01:54:31;;;;;;;13.77;7.97;;;;;;;;;;5076096;28;20044;-60
2023/10/23 01:56:58;;;;;;;15.27;8.52;;;;;;;;;;5068420;28;20032;-60
2023/10/23 01:59:24;;;;;;;16.15;9.63;;;;;;;;;;5075862;28;20059;-60
2023/10/23 02:01:50;;;;;;;14.88;9.38;;;;;;;;;;5068011;28;20081;-60
2023/10/23 02:04:16;;;;;;;19.23;10.40;;;;;;;;;;5077423;28;20040;-60
2023/10/23 02:06:42;;;;;;;15.27;8.88;;;;;;;;;;5069878;28;20040;-60
2023/10/23 02:09:09;;;;;;;16.80;10.10;;;;;;;;;;5071881;28;20111;-60
2023/10/23 02:11:35;;;;;;;13.23;9.13;;;;;;;;;;5074208;28;20048;-60
2023/10/23 02:14:01;;;;;;;14.15;8.77;;;;;;;;;;5076963;28;20148;-60
2023/10/23 02:16:28;;;;;;;26.15;9.95;;;;;;;;;;5071322;28;20036;-60
2023/10/23 02:18:54;;;;;;;22.75;9.55;;;;;;;;;;5073374;28;20504;-60
2023/10/23 02:21:20;;;;;;;21.25;9.45;;;;;;;;;;5078766;28;20430;-59
2023/10/23 02:23:46;;;;;;;61.17;9.52;;;;;;;;;;5070520;28;20035;-60
2023/10/23 02:26:12;;;;;;;92.47;11.10;;;;;;;;;;5064836;28;21109;-60
2023/10/23 02:28:38;;;;;;;107.00;11.18;;;;;;;;;;5069173;28;20128;-61
2023/10/23 02:31:05;;;;;;;205.30;14.38;;;;;;;;;;5069144;28;20056;-60
2023/10/23 02:33:31;;;;;;;190.07;13.82;;;;;;;;;;5070853;28;20567;-60
2023/10/23 02:35:57;;;;;;;228.52;11.55;;;;;;;;;;5068584;28;20445;-60
2023/10/23 02:38:23;;;;;;;201.10;11.80;;;;;;;;;;5070410;28;20441;-60
2023/10/23 02:40:53;;;;;;;154.50;9.63;;;;;;;;;;5068374;28;20101;-60
2023/10/23 02:43:20;;;;;;;63.05;7.88;;;;;;;;;;5070939;28;20040;-60
2023/10/23 02:45:46;;;;;;;143.82;10.48;;;;;;;;;;5067972;28;20175;-60
2023/10/23 02:48:13;;;;;;;78.38;10.77;;;;;;;;;;5068683;28;20166;-60
2023/10/23 02:50:39;;;;;;;60.15;8.25;;;;;;;;;;5070046;28;20052;-60
2023/10/23 02:53:06;;;;;;;58.90;8.35;;;;;;;;;;5069525;28;20069;-60
2023/10/23 02:55:32;;;;;;;76.53;7.30;;;;;;;;;;5068325;28;20043;-60
2023/10/23 02:57:58;;;;;;;85.43;8.55;;;;;;;;;;5070519;28;20068;-60
2023/10/23 03:00:25;;;;;;;68.32;8.52;;;;;;;;;;5069935;28;20059;-60
2023/10/23 03:02:51;;;;;;;70.97;9.25;;;;;;;;;;5066748;28;20055;-60
2023/10/23 03:05:17;;;;;;;109.25;10.73;;;;;;;;;;5068006;28;20040;-60
2023/10/23 03:07:43;;;;;;;70.20;9.80;;;;;;;;;;5070151;28;20040;-60
2023/10/23 03:10:10;;;;;;;191.75;12.60;;;;;;;;;;5068240;28;20115;-60
2023/10/23 03:12:36;;;;;;;140.57;10.38;;;;;;;;;;5069515;28;20103;-60
2023/10/23 03:15:03;;;;;;;80.28;9.40;;;;;;;;;;5069886;28;20044;-60
2023/10/23 03:17:30;;;;;;;114.50;9.93;;;;;;;;;;5069893;28;20048;-60
2023/10/23 03:19:56;;;;;;;102.32;11.45;;;;;;;;;;5067954;28;20074;-60
2023/10/23 03:22:23;;;;;;;99.65;10.27;;;;;;;;;;5070779;28;20045;-60
2023/10/23 03:24:49;;;;;;;54.50;11.82;;;;;;;;;;5068163;28;20055;-60
2023/10/23 03:27:15;;;;;;;42.88;10.18;;;;;;;;;;5070304;28;20447;-60
2023/10/23 03:29:44;;;;;;;62.50;10.60;;;;;;;;;;5068300;28;20345;-60
2023/10/23 03:32:11;;;;;;;86.57;10.85;;;;;;;;;;5069587;28;20048;-60
2023/10/23 03:34:37;;;;;;;73.95;10.13;;;;;;;;;;5073018;28;20043;-60
2023/10/23 03:37:04;;;;;;;136.75;11.10;;;;;;;;;;5073004;28;20146;-60
2023/10/23 03:39:30;;;;;;;93.88;11.02;;;;;;;;;;5073545;28;20040;-60
2023/10/23 03:41:56;;;;;;;59.78;9.48;;;;;;;;;;5073574;28;20059;-60
2023/10/23 03:44:22;;;;;;;101.88;11.18;;;;;;;;;;5073327;28;20120;-60
2023/10/23 03:46:48;;;;;;;121.13;11.23;;;;;;;;;;5072818;28;20051;-60
2023/10/23 03:49:15;;;;;;;156.65;11.13;;;;;;;;;;5073883;28;20568;-60
2023/10/23 03:51:41;;;;;;;134.95;10.43;;;;;;;;;;5065428;28;20044;-60
2023/10/23 03:54:07;;;;;;;113.93;10.35;;;;;;;;;;5073798;28;20150;-60
2023/10/23 03:56:33;;;;;;;56.25;9.18;;;;;;;;;;5073557;28;20460;-60
2023/10/23 03:59:00;;;;;;;109.35;9.68;;;;;;;;;;5073118;28;20369;-60
2023/10/23 04:01:27;;;;;;;66.15;9.02;;;;;;;;;;5071971;28;20452;-60
2023/10/23 04:03:53;;;;;;;63.00;8.55;;;;;;;;;;5073668;28;20072;-60
2023/10/23 04:06:19;;;;;;;31.75;7.90;;;;;;;;;;5071855;28;20388;-60
2023/10/23 04:08:46;;;;;;;23.02;8.63;;;;;;;;;;5072707;28;20033;-60
2023/10/23 04:11:15;;;;;;;23.05;8.60;;;;;;;;;;5072883;28;20044;-60
2023/10/23 04:13:41;;;;;;;41.30;8.98;;;;;;;;;;5072600;28;20048;-60
2023/10/23 04:16:07;;;;;;;32.90;9.65;;;;;;;;;;5072143;28;20048;-60
2023/10/23 04:18:34;;;;;;;95.70;11.63;;;;;;;;;;5071581;28;20147;-60
2023/10/23 04:21:03;;;;;;;52.88;9.95;;;;;;;;;;5071213;28;20048;-60
2023/10/23 04:23:29;;;;;;;56.03;8.93;;;;;;;;;;5073615;28;20083;-60
2023/10/23 04:25:55;;;;;;;84.60;10.30;;;;;;;;;;5072728;28;20502;-60
2023/10/23 04:28:22;;;;;;;80.13;9.80;;;;;;;;;;5071670;28;20512;-60
2023/10/23 04:30:48;;;;;;;74.20;10.00;;;;;;;;;;5071680;28;20153;-60
2023/10/23 04:33:16;;;;;;;19.02;8.75;;;;;;;;;;5071742;28;20392;-60
2023/10/23 04:35:43;;;;;;;22.38;9.07;;;;;;;;;;5072463;28;20047;-60
2023/10/23 04:38:09;;;;;;;16.55;9.88;;;;;;;;;;5072221;28;20040;-60
2023/10/23 04:40:35;;;;;;;17.50;9.52;;;;;;;;;;5071249;28;20048;-60
2023/10/23 04:43:01;;;;;;;18.17;9.65;;;;;;;;;;5073012;28;20426;-60
2023/10/23 04:45:27;;;;;;;20.13;11.02;;;;;;;;;;5071515;28;20040;-60
2023/10/23 04:47:54;;;;;;;16.17;9.95;;;;;;;;;;5071250;28;20068;-60
2023/10/23 04:50:20;;;;;;;20.13;11.20;;;;;;;;;;5072106;28;20051;-60
2023/10/23 04:52:46;;;;;;;213.40;12.95;;;;;;;;;;5071303;28;20078;-60
2023/10/23 04:55:12;;;;;;;25.13;9.82;;;;;;;;;;5071224;28;20502;-60
2023/10/23 04:57:38;;;;;;;26.02;9.15;;;;;;;;;;5072144;28;20044;-60
2023/10/23 05:00:05;;;;;;;18.27;8.80;;;;;;;;;;5070943;28;20036;-60
2023/10/23 05:02:31;;;;;;;10.98;8.07;;;;;;;;;;5072345;28;20078;-60
2023/10/23 05:04:57;;;;;;;12.48;8.15;;;;;;;;;;5072009;28;20076;-60
2023/10/23 05:07:24;;;;;;;40.10;9.05;;;;;;;;;;5070881;28;20048;-60
2023/10/23 05:09:50;;;;;;;79.85;10.18;;;;;;;;;;5071778;28;20079;-60
2023/10/23 05:12:16;;;;;;;129.52;11.77;;;;;;;;;;5070602;28;20090;-60
2023/10/23 05:14:42;;;;;;;94.22;10.40;;;;;;;;;;5070695;28;20044;-60
2023/10/23 05:17:08;;;;;;;105.00;11.23;;;;;;;;;;5070066;28;20094;-60
2023/10/23 05:19:34;;;;;;;35.75;9.68;;;;;;;;;;5072677;28;20124;-60
2023/10/23 05:22:00;;;;;;;13.65;8.18;;;;;;;;;;5070443;28;20379;-60
2023/10/23 05:24:27;;;;;;;14.40;9.55;;;;;;;;;;5071692;28;20041;-60
2023/10/23 05:26:53;;;;;;;29.10;10.35;;;;;;;;;;5071104;28;20041;-60
2023/10/23 05:29:19;;;;;;;106.88;10.75;;;;;;;;;;5072002;28;20048;-60
2023/10/23 05:31:45;;;;;;;110.88;10.15;;;;;;;;;;5065630;28;20047;-60
2023/10/23 05:34:11;;;;;;;50.53;7.53;;;;;;;;;;5071277;28;20124;-60
2023/10/23 05:36:37;;;;;;;37.67;8.18;;;;;;;;;;5070674;28;20048;-60
2023/10/23 05:39:04;;;;;;;65.78;7.68;;;;;;;;;;5071453;28;20097;-60
2023/10/23 05:41:30;;;;;;;46.40;7.82;;;;;;;;;;5070128;28;20507;-60
2023/10/23 05:43:56;;;;;;;150.05;10.40;;;;;;;;;;5070357;28;20044;-60
2023/10/23 05:46:22;;;;;;;77.93;8.98;;;;;;;;;;5071018;28;20033;-60
2023/10/23 05:48:48;;;;;;;53.60;8.55;;;;;;;;;;5071677;28;20381;-60
2023/10/23 05:51:15;;;;;;;31.75;7.55;;;;;;;;;;5070264;28;20485;-60
2023/10/23 05:53:41;;;;;;;25.35;8.13;;;;;;;;;;5071036;28;20393;-60
2023/10/23 05:56:07;;;;;;;32.83;8.50;;;;;;;;;;5067515;28;20063;-60
2023/10/23 05:58:34;;;;;;;15.60;8.15;;;;;;;;;;5070295;28;20105;-60
2023/10/23 06:01:07;;;;;;;35.90;7.55;;;;;;;;;;5066970;28;20421;-60
2023/10/23 06:03:33;;;;;;;16.23;7.10;;;;;;;;;;5069372;28;20123;-60
2023/10/23 06:06:00;;;;;;;36.25;6.10;;;;;;;;;;5069354;28;20071;-60
2023/10/23 06:08:26;;;;;;;57.58;7.40;;;;;;;;;;5070508;28;20112;-60
2023/10/23 06:10:53;;;;;;;78.38;9.02;;;;;;;;;;5070903;28;20072;-60
2023/10/23 06:13:20;;;;;;;107.35;9.52;;;;;;;;;;5066850;28;20052;-60
2023/10/23 06:15:49;;;;;;;44.08;7.50;;;;;;;;;;5069394;28;20131;-60
2023/10/23 06:18:16;;;;;;;19.60;8.52;;;;;;;;;;5070222;28;20140;-60
2023/10/23 06:20:42;;;;;;;15.32;8.82;;;;;;;;;;5060527;28;20044;-65
2023/10/23 06:23:08;;;;;;;17.60;11.63;;;;;;;;;;5063018;28;20079;-60
2023/10/23 06:25:34;;;;;;;15.65;10.45;;;;;;;;;;5064304;28;20052;-60
2023/10/23 06:28:01;;;;;;;17.17;9.82;;;;;;;;;;5051950;28;20045;-60
2023/10/23 06:30:27;;;;;;;16.60;10.60;;;;;;;;;;5065256;28;20625;-59
2023/10/23 06:32:53;;;;;;;21.38;11.68;;;;;;;;;;5057372;28;20051;-60
2023/10/23 06:35:20;;;;;;;16.65;11.60;;;;;;;;;;5066560;28;20231;-59
2023/10/23 06:37:48;;;;;;;20.35;11.90;;;;;;;;;;5068955;28;20080;-59
2023/10/23 06:40:14;;;;;;;18.65;11.45;;;;;;;;;;5060056;28;20124;-60
2023/10/23 06:42:40;;;;;;;17.00;11.82;;;;;;;;;;5069861;28;20069;-60
2023/10/23 06:45:06;;;;;;;16.95;11.10;;;;;;;;;;5069847;28;20079;-59
2023/10/23 06:47:33;;;;;;;18.42;10.93;;;;;;;;;;5070136;28;20037;-60
2023/10/23 06:50:02;;;;;;;16.67;9.65;;;;;;;;;;5064817;28;20044;-60
2023/10/23 06:52:28;;;;;;;16.50;10.70;;;;;;;;;;5067512;28;20071;-60
2023/10/23 06:54:54;;;;;;;19.63;11.98;;;;;;;;;;5063912;28;20045;-60
2023/10/23 06:57:20;;;;;;;19.58;13.52;;;;;;;;;;5062846;28;20094;-60
2023/10/23 06:59:46;;;;;;;18.08;11.90;;;;;;;;;;5067963;28;20056;-60
2023/10/23 07:02:12;;;;;;;24.45;13.57;;;;;;;;;;5067244;28;20048;-60
2023/10/23 07:04:39;;;;;;;18.35;12.23;;;;;;;;;;5069604;28;20033;-60
2023/10/23 07:07:05;;;;;;;21.90;14.52;;;;;;;;;;5065703;28;20040;-60
2023/10/23 07:09:32;;;;;;;21.85;14.05;;;;;;;;;;5065264;28;20330;-60
2023/10/23 07:11:58;;;;;;;21.77;15.20;;;;;;;;;;5067259;28;20115;-61
2023/10/23 07:14:24;;;;;;;25.73;16.83;;;;;;;;;;5068938;28;20137;-61
2023/10/23 07:16:50;;;;;;;26.77;15.82;;;;;;;;;;5067436;28;20046;-61
2023/10/23 07:19:17;;;;;;;30.15;16.73;;;;;;;;;;5067834;28;20066;-60
2023/10/23 07:21:44;;;;;;;26.60;16.15;;;;;;;;;;5069369;28;20127;-61
2023/10/23 07:24:10;;;;;;;23.33;15.32;;;;;;;;;;5066252;28;20738;-61
2023/10/23 07:26:36;;;;;;;25.50;15.10;;;;;;;;;;5068211;28;20044;-61
2023/10/23 07:29:02;;;;;;;24.40;15.00;;;;;;;;;;5067970;28;20083;-61
2023/10/23 07:31:28;;;;;;;23.63;13.90;;;;;;;;;;5068834;28;20112;-61
2023/10/23 07:33:54;;;;;;;21.60;15.05;;;;;;;;;;5069479;28;20093;-61
2023/10/23 07:36:21;;;;;;;24.88;15.50;;;;;;;;;;5064683;28;20151;-61
2023/10/23 07:38:47;;;;;;;27.25;17.08;;;;;;;;;;5065338;28;20124;-61
2023/10/23 07:41:13;;;;;;;31.27;16.98;;;;;;;;;;5066161;28;20230;-62
2023/10/23 07:43:40;;;;;;;29.02;17.67;;;;;;;;;;5067790;28;20128;-61
2023/10/23 07:46:07;;;;;;;28.85;17.98;;;;;;;;;;5067284;28;20453;-61
2023/10/23 07:48:34;;;;;;;28.60;18.20;;;;;;;;;;5069657;28;20071;-61
2023/10/23 07:51:00;;;;;;;33.50;17.40;;;;;;;;;;5064952;28;20093;-61
2023/10/23 07:53:27;;;;;;;32.88;19.55;;;;;;;;;;5069457;28;20048;-61
2023/10/23 07:55:54;;;;;;;35.15;20.70;;;;;;;;;;5067946;28;20424;-61
2023/10/23 07:58:20;;;;;;;37.25;20.52;;;;;;;;;;5068003;28;20082;-61
2023/10/23 08:00:46;;;;;;;37.10;21.23;;;;;;;;;;5069541;28;20041;-61
2023/10/23 08:03:13;;;;;;;38.33;21.77;;;;;;;;;;5069248;28;20059;-61
2023/10/23 08:05:39;;;;;;;36.65;22.00;;;;;;;;;;5066946;28;20056;-61
2023/10/23 08:08:05;;;;;;;37.40;23.60;;;;;;;;;;5068411;28;20121;-61
2023/10/23 08:10:31;;;;;;;40.17;24.35;;;;;;;;;;5069192;28;20417;-61
2023/10/23 08:12:58;;;;;;;38.72;24.33;;;;;;;;;;5065954;28;20581;-68
2023/10/23 08:15:24;;;;;;;37.33;23.73;;;;;;;;;;5059215;28;20045;-61
2023/10/23 08:17:50;;;;;;;44.35;24.50;;;;;;;;;;5068458;28;20076;-61
2023/10/23 08:20:17;;;;;;;39.33;23.40;;;;;;;;;;5068295;28;20048;-61
2023/10/23 08:22:43;;;;;;;38.08;24.05;;;;;;;;;;5071468;28;20082;-61
2023/10/23 08:25:09;;;;;;;34.05;22.52;;;;;;;;;;5071517;28;20033;-61
2023/10/23 08:27:36;;;;;;;29.60;21.80;;;;;;;;;;5071224;28;20047;-61
2023/10/23 08:30:02;;;;;;;34.67;21.38;;;;;;;;;;5069478;28;20527;-61
2023/10/23 08:32:29;;;;;;;26.73;19.55;;;;;;;;;;5072415;28;20055;-65
2023/10/23 08:34:55;;;;;;;29.63;19.08;;;;;;;;;;5065015;28;20044;-61
2023/10/23 08:37:21;;;;;;;28.27;18.40;;;;;;;;;;5062566;28;20041;-61
2023/10/23 08:39:48;;;;;;;27.45;18.88;;;;;;;;;;5058797;28;20048;-61
2023/10/23 08:42:14;;;;;;;27.25;16.75;;;;;;;;;;5068631;28;20052;-61
2023/10/23 08:44:40;;;;;;;21.60;15.68;;;;;;;;;;5069225;28;20090;-61
2023/10/23 08:47:07;;;;;;;22.48;14.48;;;;;;;;;;5069393;28;20238;-61
2023/10/23 08:49:33;;;;;;;20.63;14.52;;;;;;;;;;5068398;28;20067;-69
2023/10/23 08:52:00;;;;;;;21.00;13.55;;;;;;;;;;5066533;28;20052;-61
2023/10/23 08:54:27;;;;;;;16.67;12.00;;;;;;;;;;5067558;28;20048;-61
2023/10/23 08:56:59;;;;;;;15.90;10.80;;;;;;;;;;5065076;28;20044;-61
2023/10/23 08:59:25;;;;;;;15.88;10.90;;;;;;;;;;5070821;28;20052;-61
2023/10/23 09:01:51;;;;;;;13.60;9.50;;;;;;;;;;5067291;28;20492;-61
2023/10/23 09:04:17;;;;;;;13.70;8.63;;;;;;;;;;5072819;28;20503;-61
2023/10/23 09:06:44;;;;;;;11.18;7.88;;;;;;;;;;5070648;28;20045;-61
2023/10/23 09:09:10;;;;;;;13.23;7.97;;;;;;;;;;5070840;28;20171;-61
2023/10/23 09:11:41;;;;;;;15.20;7.53;;;;;;;;;;5060743;28;20048;-61
2023/10/23 09:14:07;;;;;;;11.07;7.75;;;;;;;;;;5070625;28;20151;-61
2023/10/23 09:16:33;;;;;;;11.60;8.32;;;;;;;;;;5070355;28;20488;-61
2023/10/23 09:19:00;;;;;;;10.80;6.38;;;;;;;;;;5070295;28;20051;-61
2023/10/23 09:21:26;;;;;;;11.43;6.47;;;;;;;;;;5070363;28;20043;-61
2023/10/23 09:23:53;;;;;;;8.55;5.97;;;;;;;;;;5067269;28;20441;-61
2023/10/23 09:26:20;;;;;;;9.75;6.57;;;;;;;;;;5070813;28;20511;-61
2023/10/23 09:28:49;;;;;;;8.80;5.53;;;;;;;;;;5067029;28;20044;-61
2023/10/23 09:31:16;;;;;;;9.85;4.88;;;;;;;;;;5066087;28;20099;-61
2023/10/23 09:33:45;;;;;;;7.88;4.82;;;;;;;;;;5070511;28;20048;-61
2023/10/23 09:36:11;;;;;;;8.00;5.38;;;;;;;;;;5067884;28;20543;-61
2023/10/23 09:38:39;;;;;;;10.07;5.10;;;;;;;;;;5060190;28;20427;-61
2023/10/23 09:41:12;;;;;;;6.47;3.72;;;;;;;;;;5070553;28;20116;-61
2023/10/23 09:43:46;;;;;;;9.88;3.97;;;;;;;;;;5068758;28;20115;-61
2023/10/23 09:46:13;;;;;;;5.32;3.22;;;;;;;;;;5067107;28;20522;-61
2023/10/23 09:48:43;;;;;;;6.13;3.65;;;;;;;;;;5071211;28;20086;-61
2023/10/23 09:51:15;;;;;;;6.13;3.67;;;;;;;;;;5070171;28;20051;-61
2023/10/23 09:53:50;;;;;;;6.18;3.63;;;;;;;;;;5071774;28;20463;-61
2023/10/23 09:56:20;;;;;;;9.05;3.63;;;;;;;;;;5066992;28;20049;-61
2023/10/23 09:58:49;;;;;;;6.70;3.80;;;;;;;;;;5069613;28;20075;-61
2023/10/23 10:01:17;;;;;;;7.15;4.15;;;;;;;;;;5068122;28;20048;-61
2023/10/23 10:03:43;;;;;;;5.40;2.85;;;;;;;;;;5066357;28;20036;-61
2023/10/23 10:06:14;;;;;;;4.65;2.97;;;;;;;;;;5068640;28;20131;-61
2023/10/23 10:08:42;;;;;;;10.65;4.25;;;;;;;;;;5071256;28;20396;-61
2023/10/23 10:11:08;;;;;;;8.77;5.47;;;;;;;;;;5069550;28;20044;-61
2023/10/23 10:13:36;;;;;;;8.90;6.53;;;;;;;;;;5070234;28;20462;-61
2023/10/23 10:16:04;;;;;;;12.10;7.47;;;;;;;;;;5068039;28;20087;-61
2023/10/23 10:18:30;;;;;;;9.57;6.10;;;;;;;;;;5070503;28;20044;-61
2023/10/23 10:20:59;;;;;;;11.48;6.65;;;;;;;;;;5069955;28;20098;-61
2023/10/23 10:23:26;;;;;;;10.77;6.55;;;;;;;;;;5067588;28;20458;-61
2023/10/23 10:25:52;;;;;;;11.95;6.47;;;;;;;;;;5070068;28;20036;-61
2023/10/23 10:28:25;;;;;;;10.68;6.10;;;;;;;;;;5068341;28;20060;-61
2023/10/23 10:30:52;;;;;;;13.77;6.20;;;;;;;;;;5068419;28;20476;-61
2023/10/23 10:33:21;;;;;;;8.88;5.68;;;;;;;;;;5068104;28;20076;-61
2023/10/23 10:35:59;;;;;;;10.98;5.45;;;;;;;;;;5069013;28;20036;-61
2023/10/23 10:38:26;;;;;;;8.88;5.15;;;;;;;;;;5064124;28;20037;-61
2023/10/23 10:41:00;;;;;;;10.70;4.90;;;;;;;;;;5067706;28;20507;-61
2023/10/23 10:43:34;;;;;;;9.30;4.65;;;;;;;;;;5066374;28;20515;-61
2023/10/23 10:46:01;;;;;;;11.35;4.80;;;;;;;;;;5069865;28;20400;-61
2023/10/23 10:48:40;;;;;;;9.10;3.72;;;;;;;;;;5069151;28;20036;-61
2023/10/23 10:51:07;;;;;;;7.38;3.60;;;;;;;;;;5069693;28;20155;-61
2023/10/23 10:53:34;;;;;;;5.82;3.70;;;;;;;;;;5067645;28;20047;-61
2023/10/23 10:56:00;;;;;;;10.43;4.05;;;;;;;;;;5068720;28;20044;-61
2023/10/23 10:58:26;;;;;;;6.25;4.20;;;;;;;;;;5067611;28;20051;-61
2023/10/23 11:00:52;;;;;;;9.50;4.28;;;;;;;;;;5060680;28;20037;-61
2023/10/23 11:03:18;;;;;;;7.40;3.65;;;;;;;;;;5068685;28;20047;-61
2023/10/23 11:05:45;;;;;;;6.65;2.97;;;;;;;;;;5070712;28;20119;-61
2023/10/23 11:08:12;;;;;;;4.68;2.60;;;;;;;;;;5068545;28;20135;-61
2023/10/23 11:10:38;;;;;;;5.07;2.35;;;;;;;;;;5067652;28;20044;-62
2023/10/23 11:13:04;;;;;;;5.28;1.52;;;;;;;;;;5067653;28;20075;-61
2023/10/23 11:15:30;;;;;;;2.88;1.33;;;;;;;;;;5064457;28;20040;-61
2023/10/23 11:17:56;;;;;;;6.85;1.77;;;;;;;;;;5065970;28;20045;-61
2023/10/23 11:20:30;;;;;;;4.20;1.70;;;;;;;;;;5068801;28;20036;-61
2023/10/23 11:22:56;;;;;;;6.00;1.50;;;;;;;;;;5069793;28;20045;-61
2023/10/23 11:25:23;;;;;;;3.60;1.25;;;;;;;;;;5070411;28;20525;-61
2023/10/23 11:27:52;;;;;;;3.15;1.23;;;;;;;;;;5066548;28;20051;-61
2023/10/23 11:30:19;;;;;;;3.60;1.75;;;;;;;;;;5067902;28;20555;-61
2023/10/23 11:32:45;;;;;;;5.10;1.77;;;;;;;;;;5065422;28;20041;-61
2023/10/23 11:35:11;;;;;;;4.80;2.05;;;;;;;;;;5069566;28;20144;-61
2023/10/23 11:37:42;;;;;;;5.68;1.60;;;;;;;;;;5056348;28;20507;-61
2023/10/23 11:40:09;;;;;;;3.28;1.80;;;;;;;;;;5060085;28;20404;-61
2023/10/23 11:42:55;;;;;;;6.10;2.78;;;;;;;;;;5063353;28;20067;-62
2023/10/23 11:45:21;;;;;;;4.00;1.83;;;;;;;;;;5063046;28;20102;-61
2023/10/23 11:47:49;;;;;;;7.07;2.05;;;;;;;;;;5067651;28;20056;-61
2023/10/23 11:50:15;;;;;;;6.07;2.22;;;;;;;;;;5062047;28;20162;-61
2023/10/23 11:52:45;;;;;;;4.43;1.77;;;;;;;;;;5063387;28;20135;-62
2023/10/23 11:55:12;;;;;;;4.93;1.75;;;;;;;;;;5065945;28;20480;-61
2023/10/23 11:57:42;;;;;;;4.80;1.70;;;;;;;;;;5072348;28;20051;-61
2023/10/23 12:00:11;;;;;;;7.45;1.80;;;;;;;;;;5073945;28;20068;-62
2023/10/23 12:02:39;;;;;;;4.18;2.00;;;;;;;;;;5072851;28;20049;-61
2023/10/23 12:05:06;;;;;;;7.00;2.33;;;;;;;;;;5070065;28;20103;-62
2023/10/23 12:07:33;;;;;;;5.15;1.80;;;;;;;;;;5072482;28;20095;-62
2023/10/23 12:09:59;;;;;;;4.53;1.98;;;;;;;;;;5073641;28;20078;-61
2023/10/23 12:12:25;;;;;;;4.93;1.38;;;;;;;;;;5072751;28;20124;-62
2023/10/23 12:14:51;;;;;;;5.53;2.50;;;;;;;;;;5072635;28;20048;-61
2023/10/23 12:17:18;;;;;;;5.53;1.50;;;;;;;;;;5073709;28;20059;-61
2023/10/23 12:19:44;;;;;;;3.50;1.23;;;;;;;;;;5071213;28;20045;-61
2023/10/23 12:22:10;;;;;;;3.10;1.20;;;;;;;;;;5071316;28;20480;-62
2023/10/23 12:24:36;;;;;;;3.85;1.30;;;;;;;;;;5072329;28;20029;-61
2023/10/23 12:27:02;;;;;;;4.53;1.10;;;;;;;;;;5075849;28;20206;-61
2023/10/23 12:29:29;;;;;;;4.18;1.38;;;;;;;;;;5071813;28;20064;-61
2023/10/23 12:31:55;;;;;;;3.90;1.30;;;;;;;;;;5072402;28;20064;-61
2023/10/23 12:34:21;;;;;;;3.83;1.50;;;;;;;;;;5071451;28;20040;-62
2023/10/23 12:36:47;;;;;;;9.85;2.88;;;;;;;;;;5070591;28;20488;-62
2023/10/23 12:39:13;;;;;;;4.28;1.50;;;;;;;;;;5072428;28;20063;-62
2023/10/23 12:41:39;;;;;;;7.43;2.13;;;;;;;;;;5072287;28;20127;-62
2023/10/23 12:44:06;;;;;;;5.70;1.95;;;;;;;;;;5070781;28;20040;-61
2023/10/23 12:46:32;;;;;;;4.85;1.65;;;;;;;;;;5072428;28;20393;-61
2023/10/23 12:48:58;;;;;;;4.70;1.35;;;;;;;;;;5072156;28;20040;-61
2023/10/23 12:51:26;;;;;;;9.40;1.70;;;;;;;;;;5072141;28;20040;-61
2023/10/23 12:53:52;;;;;;;3.55;1.33;;;;;;;;;;5071136;28;20119;-61
2023/10/23 12:56:18;;;;;;;6.10;1.48;;;;;;;;;;5070526;28;20036;-61
2023/10/23 12:58:44;;;;;;;5.15;1.55;;;;;;;;;;5072936;28;20473;-61
2023/10/23 13:01:11;;;;;;;4.88;1.75;;;;;;;;;;5072073;28;20033;-62
2023/10/23 13:03:38;;;;;;;4.72;1.50;;;;;;;;;;5072242;28;20045;-61
2023/10/23 13:06:06;;;;;;;5.15;1.92;;;;;;;;;;5072638;28;20036;-61
2023/10/23 13:08:32;;;;;;;7.07;1.70;;;;;;;;;;5071847;28;20133;-61
2023/10/23 13:10:59;;;;;;;5.90;1.50;;;;;;;;;;5071845;28;20033;-62
2023/10/23 13:13:25;;;;;;;5.03;1.88;;;;;;;;;;5072381;28;20045;-62
2023/10/23 13:15:51;;;;;;;4.45;1.88;;;;;;;;;;5070997;28;20369;-62
2023/10/23 13:18:17;;;;;;;4.20;1.58;;;;;;;;;;5071043;28;20040;-62
2023/10/23 13:20:43;;;;;;;4.55;1.60;;;;;;;;;;5071207;28;20090;-62
2023/10/23 13:23:09;;;;;;;6.05;1.70;;;;;;;;;;5072307;28;20044;-62
2023/10/23 13:25:37;;;;;;;3.83;1.25;;;;;;;;;;5068730;28;20040;-62
2023/10/23 13:28:04;;;;;;;5.25;1.85;;;;;;;;;;5071555;28;20048;-62
2023/10/23 13:30:31;;;;;;;6.53;1.73;;;;;;;;;;5072035;28;20049;-61
2023/10/23 13:32:57;;;;;;;4.43;1.63;;;;;;;;;;5072123;28;20124;-61
2023/10/23 13:35:23;;;;;;;6.72;1.73;;;;;;;;;;5069048;28;20067;-61
2023/10/23 13:37:49;;;;;;;4.85;1.88;;;;;;;;;;5069062;28;20939;-62
2023/10/23 13:40:15;;;;;;;12.75;3.08;;;;;;;;;;5068529;28;20383;-65
2023/10/23 13:42:42;;;;;;;4.72;1.55;;;;;;;;;;5065460;28;20040;-61
2023/10/23 13:45:08;;;;;;;6.68;1.67;;;;;;;;;;5069018;28;20049;-62
2023/10/23 13:47:34;;;;;;;5.85;2.03;;;;;;;;;;5068273;28;20043;-61
2023/10/23 13:50:01;;;;;;;7.90;1.98;;;;;;;;;;5066266;28;21273;-61
2023/10/23 13:52:27;;;;;;;3.88;2.00;;;;;;;;;;5067535;28;20041;-61
2023/10/23 13:54:53;;;;;;;4.38;1.75;;;;;;;;;;5071788;28;20159;-61
2023/10/23 13:57:19;;;;;;;4.97;2.13;;;;;;;;;;5068050;28;20047;-61
2023/10/23 13:59:46;;;;;;;7.00;2.53;;;;;;;;;;5069812;28;20495;-61
2023/10/23 14:02:12;;;;;;;5.32;2.28;;;;;;;;;;5070851;28;20399;-61
2023/10/23 14:04:39;;;;;;;3.90;2.30;;;;;;;;;;5065688;28;20028;-61
2023/10/23 14:07:05;;;;;;;7.35;2.75;;;;;;;;;;5062312;28;20381;-61
2023/10/23 14:09:31;;;;;;;9.55;3.58;;;;;;;;;;5068657;28;20115;-61
2023/10/23 14:11:57;;;;;;;4.60;2.80;;;;;;;;;;5063737;28;20073;-61
2023/10/23 14:14:23;;;;;;;6.32;2.67;;;;;;;;;;5067584;28;20079;-61
2023/10/23 14:16:49;;;;;;;7.85;3.22;;;;;;;;;;5068362;28;20047;-61
2023/10/23 14:19:16;;;;;;;4.43;2.83;;;;;;;;;;5070610;28;20044;-61
2023/10/23 14:21:42;;;;;;;7.05;3.60;;;;;;;;;;5069593;28;20095;-61
2023/10/23 14:24:09;;;;;;;5.13;3.45;;;;;;;;;;5069361;28;20518;-61
2023/10/23 14:26:35;;;;;;;6.85;3.78;;;;;;;;;;5070067;28;20079;-61
2023/10/23 14:29:01;;;;;;;7.60;4.07;;;;;;;;;;5069925;28;20380;-61